Terminal Aerodrome Forecast
Issued by NWS

Home | Current Version | Previous Version | Text Only | Print | Product List | Glossary On
Versions: 1 2 3 4 5 6 7 8 9 10 11 12 13 14 15 16 17 18 19 20 21 22 23 24 25 26 27 28 29 30 31 32 33
000
FTUS45 KGJT 222327
TAFVEL
TAF
KVEL 222327Z 2300/2324 18010KT P6SM VCTS SCT100CB BKN150
      TEMPO 2300/2301 -TSRA
     FM230200 32006KT P6SM VCSH SCT050 OVC070
     FM230900 32004KT P6SM -RA SCT050 BKN070
     FM231500 17006KT P6SM VCSH SCT050 BKN090
     FM231900 23012G20KT P6SM BKN100=

USA.gov is the U.S. government's official web portal to all federal, state and local government web resources and services.